Time;durP1;ratioP1;P1;durP2;ratioP2;P2;SDS_P1;SDS_P2;PMS_P1;PMS_P2;Temp;Humidity;BMP_temperature;BMP_pressure;BME280_temperature;BME280_humidity;BME280_pressure;Samples;Min_cycle;Max_cycle;Signal;HPM_P1;HPM_P2
2024/03/12 00:01:25;;;;;;;7.57;5.33;;;;;;;7.45;92.59;100177.84;5055969;28;20728;-80
2024/03/12 00:03:54;;;;;;;6.63;4.93;;;;;;;7.48;91.91;100177.66;5054564;28;20214;-81
2024/03/12 00:06:21;;;;;;;7.87;6.03;;;;;;;7.49;91.97;100184.66;5055901;28;20205;-81
2024/03/12 00:08:48;;;;;;;6.73;5.50;;;;;;;7.53;91.72;100189.69;5054893;28;20221;-79
2024/03/12 00:11:15;;;;;;;7.67;5.27;;;;;;;7.54;91.40;100193.19;5054692;28;20198;-80
2024/03/12 00:13:41;;;;;;;8.47;5.90;;;;;;;7.55;91.11;100189.59;5055277;28;20285;-80
2024/03/12 00:16:08;;;;;;;7.33;5.43;;;;;;;7.54;90.44;100191.38;5054783;28;20256;-79
2024/03/12 00:18:35;;;;;;;8.13;5.93;;;;;;;7.54;90.80;100194.03;5055119;28;20265;-80
2024/03/12 00:21:04;;;;;;;6.90;5.50;;;;;;;7.53;89.84;100194.97;5063569;28;20248;-80
2024/03/12 00:23:30;;;;;;;7.17;5.00;;;;;;;7.49;90.45;100195.25;5061835;28;20795;-79
2024/03/12 00:25:57;;;;;;;7.23;5.00;;;;;;;7.49;90.12;100203.22;5058485;28;20206;-80
2024/03/12 00:28:24;;;;;;;6.70;5.57;;;;;;;7.49;90.19;100209.38;5066620;28;20280;-79
2024/03/12 00:30:52;;;;;;;8.20;5.87;;;;;;;7.48;89.74;100209.44;5060562;28;20254;-81
2024/03/12 00:33:20;;;;;;;5.40;4.23;;;;;;;7.46;89.69;100208.69;5054578;28;20198;-79
2024/03/12 00:35:47;;;;;;;7.00;5.37;;;;;;;7.44;89.65;100208.78;5054740;28;20210;-81
2024/03/12 00:38:17;;;;;;;7.57;4.90;;;;;;;7.43;88.93;100204.41;5053667;28;20248;-81
2024/03/12 00:40:44;;;;;;;8.43;5.10;;;;;;;7.40;88.71;100201.06;5060804;28;20204;-80
2024/03/12 00:43:11;;;;;;;6.97;4.30;;;;;;;7.37;89.25;100203.91;5049876;28;20283;-80
2024/03/12 00:45:41;;;;;;;7.33;5.23;;;;;;;7.34;89.17;100202.31;5052065;28;20289;-79
2024/03/12 00:48:10;;;;;;;6.10;4.37;;;;;;;7.32;88.87;100214.78;5044978;28;20833;-80
2024/03/12 00:50:51;;;;;;;7.47;4.60;;;;;;;7.32;89.28;100218.28;5049508;28;20209;-81
2024/03/12 00:53:19;;;;;;;7.10;4.40;;;;;;;7.32;88.82;100220.06;5050566;28;20240;-81
2024/03/12 00:55:47;;;;;;;5.37;4.00;;;;;;;7.32;88.63;100220.94;5052814;28;20296;-80
2024/03/12 00:58:28;;;;;;;5.43;3.90;;;;;;;7.35;88.58;100222.53;5049509;28;20379;-80
2024/03/12 01:01:06;;;;;;;;;;;;;;;;;;;;;
2024/03/12 01:03:34;;;;;;;6.13;4.47;;;;;;;7.37;88.04;100222.44;5030770;28;20907;-79
2024/03/12 01:06:03;;;;;;;6.73;4.17;;;;;;;7.39;87.80;100220.56;5051131;28;20213;-79
2024/03/12 01:08:31;;;;;;;5.20;4.10;;;;;;;7.44;87.77;100218.50;5052691;28;20226;-80
2024/03/12 01:10:58;;;;;;;5.23;4.10;;;;;;;7.40;87.69;100216.97;5048053;28;20205;-80
2024/03/12 01:13:25;;;;;;;5.03;3.50;;;;;;;7.39;87.75;100213.47;5050105;28;20205;-80
2024/03/12 01:15:54;;;;;;;6.60;4.00;;;;;;;7.38;87.39;100214.41;5051372;28;20205;-79
2024/03/12 01:18:20;;;;;;;5.43;3.70;;;;;;;7.34;88.21;100212.91;5047004;28;20225;-81
2024/03/12 01:20:49;;;;;;;6.63;3.77;;;;;;;7.33;87.85;100213.84;5050848;28;20400;-81
2024/03/12 01:23:16;;;;;;;6.63;3.90;;;;;;;7.31;87.97;100215.72;5044246;28;20940;-80
2024/03/12 01:25:43;;;;;;;4.40;3.43;;;;;;;7.27;87.39;100224.78;5052855;28;20233;-80
2024/03/12 01:28:10;;;;;;;6.17;3.40;;;;;;;7.16;86.28;100229.81;5051837;28;20677;-81
2024/03/12 01:30:37;;;;;;;5.47;3.37;;;;;;;7.05;85.88;100225.09;5046387;28;20206;-80
2024/03/12 01:33:05;;;;;;;7.17;4.23;;;;;;;6.96;86.46;100230.94;5048976;28;20236;-80
2024/03/12 01:38:36;;;;;;;6.37;4.37;;;;;;;6.90;87.82;100229.47;5043847;28;20241;-80
2024/03/12 01:41:05;;;;;;;6.67;3.90;;;;;;;6.88;88.17;100233.97;5045766;28;20591;-81
2024/03/12 01:43:31;;;;;;;9.07;4.37;;;;;;;6.88;88.70;100228.69;5041254;28;20197;-80
2024/03/12 01:45:59;;;;;;;5.70;3.90;;;;;;;6.88;88.40;100233.97;5047772;28;20705;-80
2024/03/12 01:48:26;;;;;;;8.90;4.60;;;;;;;6.86;88.86;100230.56;5051840;28;20593;-81
2024/03/12 01:50:54;;;;;;;5.30;3.53;;;;;;;6.83;88.81;100217.50;5048527;28;20205;-80
2024/03/12 01:53:21;;;;;;;5.07;3.47;;;;;;;6.83;89.20;100229.88;5046628;28;20206;-81
2024/03/12 01:55:50;;;;;;;5.63;3.63;;;;;;;6.80;89.56;100224.78;5045859;28;20228;-81
2024/03/12 01:58:18;;;;;;;5.23;3.50;;;;;;;6.78;88.93;100230.16;5041859;28;20276;-79
2024/03/12 02:00:45;;;;;;;6.77;3.73;;;;;;;6.78;89.57;100222.22;5050605;28;20324;-82
2024/03/12 02:03:11;;;;;;;4.67;3.20;;;;;;;6.81;88.70;100226.44;5041391;28;20279;-80
2024/03/12 02:05:40;;;;;;;4.93;3.37;;;;;;;6.77;87.82;100228.44;5048759;28;20267;-78
2024/03/12 02:08:07;;;;;;;5.53;3.10;;;;;;;6.69;88.19;100227.13;5040863;28;20222;-81
2024/03/12 02:10:34;;;;;;;4.73;3.33;;;;;;;6.63;88.17;100226.50;5045560;28;20659;-81
2024/03/12 02:13:01;;;;;;;5.63;4.00;;;;;;;6.55;89.06;100226.09;5048504;28;20248;-79
2024/03/12 02:15:29;;;;;;;5.37;3.70;;;;;;;6.48;88.62;100231.78;5052354;28;20597;-80
2024/03/12 02:17:56;;;;;;;6.13;3.93;;;;;;;6.41;89.83;100231.25;5047043;28;20750;-81
2024/03/12 02:20:22;;;;;;;6.17;4.90;;;;;;;6.36;90.09;100227.13;5050343;28;20221;-78
2024/03/12 02:22:53;;;;;;;6.73;4.87;;;;;;;6.32;91.04;100246.75;5047937;28;20248;-80
2024/03/12 02:25:21;;;;;;;5.70;4.33;;;;;;;6.28;90.60;100232.81;5046106;28;20201;-80
2024/03/12 02:27:47;;;;;;;7.33;4.77;;;;;;;6.23;91.61;100238.38;5046212;28;20313;-80
2024/03/12 02:30:14;;;;;;;9.57;6.10;;;;;;;6.20;91.95;100246.47;5046133;28;20281;-81
2024/03/12 02:32:41;;;;;;;9.73;6.00;;;;;;;6.17;91.92;100236.03;5048395;28;20307;-80
2024/03/12 02:35:10;;;;;;;7.37;5.10;;;;;;;6.15;91.60;100237.03;5047037;28;20288;-82
2024/03/12 02:37:35;;;;;;;8.80;5.63;;;;;;;6.12;92.34;100247.75;5046957;28;20230;-82
2024/03/12 02:40:04;;;;;;;12.53;7.27;;;;;;;6.09;92.38;100250.59;5048962;28;20712;-81
2024/03/12 02:42:32;;;;;;;11.60;6.53;;;;;;;6.06;92.32;100242.81;5046932;28;20217;-80
2024/03/12 02:44:59;;;;;;;7.73;5.87;;;;;;;6.05;92.78;100247.25;5045408;28;20260;-80
2024/03/12 02:47:26;;;;;;;7.93;5.03;;;;;;;6.01;92.86;100240.41;5047379;28;20221;-79
2024/03/12 02:49:54;;;;;;;5.93;4.03;;;;;;;5.94;91.53;100244.28;5051897;28;20204;-80
2024/03/12 02:52:20;;;;;;;5.30;3.80;;;;;;;5.81;89.13;100251.09;5048825;28;20296;-80
2024/03/12 02:54:47;;;;;;;5.23;3.40;;;;;;;5.71;89.13;100257.78;5052137;28;20202;-80
2024/03/12 02:57:14;;;;;;;8.00;4.80;;;;;;;5.63;89.99;100265.22;5049662;28;20313;-80
2024/03/12 02:59:42;;;;;;;6.23;4.60;;;;;;;5.57;91.08;100263.72;5049491;28;20265;-82
2024/03/12 03:02:08;;;;;;;8.60;4.50;;;;;;;5.54;91.96;100270.03;5050106;28;20202;-81
2024/03/12 03:04:36;;;;;;;6.93;4.27;;;;;;;5.53;92.71;100272.75;5049791;28;20265;-82
2024/03/12 03:07:04;;;;;;;6.67;4.60;;;;;;;5.51;92.95;100267.53;5051518;28;20229;-80
2024/03/12 03:09:30;;;;;;;6.07;4.13;;;;;;;5.52;93.21;100268.38;5051109;28;20288;-82
2024/03/12 03:11:57;;;;;;;6.90;4.37;;;;;;;5.51;93.55;100264.88;5047835;28;20967;-81
2024/03/12 03:14:24;;;;;;;5.77;4.10;;;;;;;5.50;94.04;100262.31;5052110;28;20232;-82
2024/03/12 03:16:54;;;;;;;6.80;3.97;;;;;;;5.48;94.32;100267.69;5047539;28;20214;-79
2024/03/12 03:19:20;;;;;;;6.60;3.90;;;;;;;5.49;94.98;100271.16;5054045;28;20585;-81
2024/03/12 03:21:47;;;;;;;5.07;3.70;;;;;;;5.48;95.28;100267.69;5050924;28;20651;-81
2024/03/12 03:24:14;;;;;;;5.40;3.93;;;;;;;5.49;95.60;100268.53;5054006;28;20213;-80
2024/03/12 03:26:40;;;;;;;6.70;4.20;;;;;;;5.49;95.12;100276.44;5048784;28;20594;-81
2024/03/12 03:29:07;;;;;;;5.23;3.80;;;;;;;5.42;94.27;100277.66;5047276;28;20229;-81
2024/03/12 03:31:34;;;;;;;4.83;3.63;;;;;;;5.38;94.41;100281.38;5043593;28;20230;-80
2024/03/12 03:34:04;;;;;;;6.80;3.97;;;;;;;5.32;93.80;100279.06;5045076;28;20439;-80
2024/03/12 03:36:31;;;;;;;4.57;3.53;;;;;;;5.29;93.94;100276.56;5049320;28;20214;-80
2024/03/12 03:38:58;;;;;;;6.90;3.70;;;;;;;5.26;94.33;100282.81;5047039;28;20325;-80
2024/03/12 03:41:25;;;;;;;6.37;4.67;;;;;;;5.26;95.07;100279.31;5051217;28;20233;-80
2024/03/12 03:43:52;;;;;;;6.47;4.63;;;;;;;5.27;95.72;100284.53;5050868;28;20598;-81
2024/03/12 03:46:18;;;;;;;5.83;4.70;;;;;;;5.30;97.26;100284.41;5050097;28;20212;-80
2024/03/12 03:48:45;;;;;;;6.47;4.20;;;;;;;5.35;98.02;100285.03;5048595;28;20313;-81
2024/03/12 03:51:14;;;;;;;7.37;3.87;;;;;;;5.44;98.22;100281.94;5046366;28;20197;-80
2024/03/12 03:53:41;;;;;;;6.73;4.90;;;;;;;5.51;98.70;100288.66;5049125;28;20722;-80
2024/03/12 03:56:15;;;;;;;5.50;4.00;;;;;;;5.58;98.67;100282.13;5051757;28;20629;-78
2024/03/12 03:58:43;;;;;;;6.03;4.27;;;;;;;5.63;99.07;100286.34;5051598;28;20228;-81
2024/03/12 04:01:10;;;;;;;5.57;4.60;;;;;;;5.70;98.71;100290.41;5053090;28;20316;-82
2024/03/12 04:03:38;;;;;;;5.47;4.30;;;;;;;5.74;99.09;100291.94;5054955;28;20221;-80
2024/03/12 04:06:06;;;;;;;4.97;3.80;;;;;;;5.77;98.84;100300.59;5054278;28;20202;-81
2024/03/12 04:08:35;;;;;;;7.30;3.73;;;;;;;5.82;98.58;100292.44;5055088;28;20435;-81
2024/03/12 04:11:03;;;;;;;5.50;4.07;;;;;;;5.86;98.15;100301.94;5047165;28;20233;-79
2024/03/12 04:13:32;;;;;;;6.27;4.63;;;;;;;5.94;98.03;100307.72;5052802;28;20206;-80
2024/03/12 04:15:59;;;;;;;5.60;4.20;;;;;;;5.98;98.03;100304.00;5048034;28;20305;-80
2024/03/12 04:18:25;;;;;;;6.47;3.87;;;;;;;6.04;97.34;100306.34;5050396;28;20253;-80
2024/03/12 04:20:53;;;;;;;4.87;3.93;;;;;;;6.07;97.53;100307.97;5053865;28;20279;-80
2024/03/12 04:23:20;;;;;;;6.40;4.30;;;;;;;6.13;97.90;100316.44;5050101;28;20206;-82
2024/03/12 04:25:48;;;;;;;5.43;4.13;;;;;;;6.17;97.55;100319.78;5047020;28;20801;-80
2024/03/12 04:28:16;;;;;;;5.93;4.40;;;;;;;6.21;97.71;100316.91;5046082;28;20753;-80
2024/03/12 04:30:43;;;;;;;5.37;4.47;;;;;;;6.23;97.55;100320.34;5049452;28;20209;-80
2024/03/12 04:33:10;;;;;;;5.17;4.00;;;;;;;6.27;97.79;100321.03;5049264;28;20568;-80
2024/03/12 04:35:37;;;;;;;5.93;4.00;;;;;;;6.30;97.57;100317.38;5048359;28;20241;-79
2024/03/12 04:38:04;;;;;;;4.50;3.60;;;;;;;6.38;96.92;100328.44;5052510;28;20748;-80
2024/03/12 04:40:31;;;;;;;5.67;4.20;;;;;;;6.46;96.70;100323.56;5049670;28;20316;-82
2024/03/12 04:42:59;;;;;;;5.67;3.90;;;;;;;6.48;96.66;100329.66;5050356;28;20205;-80
2024/03/12 04:45:25;;;;;;;4.90;3.87;;;;;;;6.49;96.26;100326.06;5051270;28;20230;-80
2024/03/12 04:47:52;;;;;;;5.83;4.00;;;;;;;6.51;96.53;100332.16;5051574;28;20225;-82
2024/03/12 04:50:22;;;;;;;4.97;3.77;;;;;;;6.53;96.32;100331.13;5049654;28;20236;-81
2024/03/12 04:52:49;;;;;;;5.07;3.97;;;;;;;6.57;95.69;100326.53;5051347;28;20240;-81
2024/03/12 04:55:15;;;;;;;5.30;3.90;;;;;;;6.63;95.46;100334.13;5048790;28;21001;-82
2024/03/12 04:57:42;;;;;;;6.00;4.13;;;;;;;6.68;95.24;100334.75;5050562;28;20316;-79
2024/03/12 05:00:14;;;;;;;5.20;3.83;;;;;;;6.70;95.56;100345.28;5047808;28;20264;-79
2024/03/12 05:02:41;;;;;;;6.37;4.37;;;;;;;6.74;95.42;100342.41;5047072;28;20221;-81
2024/03/12 05:05:08;;;;;;;5.20;4.10;;;;;;;6.75;95.03;100340.59;5049242;28;20252;-80
2024/03/12 05:07:35;;;;;;;5.37;3.83;;;;;;;6.82;94.24;100339.31;5045761;28;20602;-80
2024/03/12 05:10:02;;;;;;;4.63;4.00;;;;;;;6.83;93.58;100341.91;5046797;28;20225;-80
2024/03/12 05:12:28;;;;;;;4.77;3.80;;;;;;;6.85;93.50;100347.13;5048626;28;20300;-80
2024/03/12 05:14:55;;;;;;;4.67;3.87;;;;;;;6.88;93.80;100345.16;5050567;28;20210;-80
2024/03/12 05:17:23;;;;;;;6.17;4.20;;;;;;;6.88;93.22;100345.16;5044176;28;20308;-81
2024/03/12 05:19:49;;;;;;;5.43;4.33;;;;;;;6.90;94.00;100353.03;5052931;28;20288;-80
2024/03/12 05:22:16;;;;;;;5.73;4.03;;;;;;;6.93;93.55;100353.72;5048960;28;20584;-82
2024/03/12 05:24:43;;;;;;;7.77;4.30;;;;;;;6.93;93.31;100353.72;5052152;28;20212;-83
2024/03/12 05:27:10;;;;;;;7.23;6.53;;;;;;;6.93;93.32;100353.72;5047635;28;20256;-82
2024/03/12 05:29:42;;;;;;;7.07;4.97;;;;;;;6.94;93.35;100358.09;5050555;28;20649;-82
2024/03/12 05:32:18;;;;;;;5.37;4.20;;;;;;;6.96;93.79;100372.09;5051554;28;20205;-82
2024/03/12 05:34:47;;;;;;;7.43;4.47;;;;;;;6.95;93.58;100362.44;5049438;28;20906;-81
2024/03/12 05:37:28;;;;;;;5.63;4.10;;;;;;;7.00;93.77;100364.81;5050851;28;20221;-81
2024/03/12 05:40:11;;;;;;;5.90;4.50;;;;;;;7.01;92.91;100363.88;5049242;28;20213;-82
2024/03/12 05:48:10;;;;;;;6.50;4.53;;;;;;;7.15;92.73;100379.06;5044114;28;20232;-80
2024/03/12 05:50:39;;;;;;;5.80;4.60;;;;;;;7.16;92.54;100383.44;5049670;28;20607;-81
2024/03/12 05:53:05;;;;;;;6.43;4.27;;;;;;;7.21;92.96;100370.78;5052077;28;20265;-81
2024/03/12 05:55:34;;;;;;;6.60;4.93;;;;;;;7.18;92.69;100374.44;5048988;28;20232;-79
2024/03/12 05:58:01;;;;;;;6.63;4.73;;;;;;;7.13;93.05;100384.44;5045552;28;20263;-80
2024/03/12 06:00:27;;;;;;;7.80;4.33;;;;;;;7.15;93.35;100387.88;5049722;28;20673;-79
2024/03/12 06:02:54;;;;;;;5.93;4.77;;;;;;;7.20;93.89;100393.75;5049041;28;20244;-81
2024/03/12 06:05:21;;;;;;;7.77;5.67;;;;;;;7.23;93.13;100392.75;5041693;28;20231;-82
2024/03/12 06:07:49;;;;;;;7.03;5.27;;;;;;;7.22;94.22;100402.47;5046870;28;20230;-81
2024/03/12 06:10:16;;;;;;;6.37;4.40;;;;;;;7.22;93.72;100398.97;5049049;28;20616;-80
2024/03/12 06:12:43;;;;;;;7.27;5.27;;;;;;;7.21;93.65;100405.22;5059787;28;20205;-82
2024/03/12 06:15:10;;;;;;;6.67;4.80;;;;;;;7.27;94.20;100410.19;5047358;28;20251;-80
2024/03/12 06:17:37;;;;;;;5.80;5.03;;;;;;;7.25;94.09;100412.06;5047925;28;20318;-80
2024/03/12 06:20:05;;;;;;;5.07;4.57;;;;;;;7.27;93.64;100412.84;5046539;28;20239;-81
2024/03/12 06:22:33;;;;;;;6.47;4.70;;;;;;;7.30;93.58;100410.88;5049048;28;20207;-82
2024/03/12 06:25:01;;;;;;;7.00;5.33;;;;;;;7.34;93.44;100414.22;5051349;28;20225;-78
2024/03/12 06:27:32;;;;;;;8.63;5.70;;;;;;;7.35;93.48;100418.56;5047911;28;20308;-80
2024/03/12 06:29:58;;;;;;;7.03;5.00;;;;;;;7.35;93.31;100417.69;5052127;28;20207;-80
2024/03/12 06:32:29;;;;;;;6.40;5.20;;;;;;;7.38;93.02;100423.69;5053206;28;20288;-81
2024/03/12 06:34:56;;;;;;;5.33;4.83;;;;;;;7.35;92.85;100426.50;5056279;28;20233;-80
2024/03/12 06:37:23;;;;;;;7.53;5.47;;;;;;;7.37;93.37;100421.13;5053031;28;20225;-81
2024/03/12 06:39:51;;;;;;;6.93;5.20;;;;;;;7.38;92.88;100431.66;5055807;28;20271;-81
2024/03/12 06:42:19;;;;;;;6.97;5.47;;;;;;;7.40;92.16;100431.56;5055993;28;20229;-81
2024/03/12 06:44:49;;;;;;;6.87;5.30;;;;;;;7.42;93.11;100429.69;5054048;28;20241;-81
2024/03/12 06:47:16;;;;;;;6.40;5.00;;;;;;;7.42;93.09;100435.00;5054485;28;20230;-82
2024/03/12 06:49:44;;;;;;;6.57;5.67;;;;;;;7.42;93.82;100435.84;5056716;28;20296;-82
2024/03/12 06:52:10;;;;;;;9.63;6.53;;;;;;;7.44;93.37;100439.28;5049809;28;20213;-82
2024/03/12 06:54:37;;;;;;;7.83;5.77;;;;;;;7.47;94.02;100441.78;5054763;28;20233;-81
2024/03/12 06:57:06;;;;;;;7.77;5.73;;;;;;;7.47;94.25;100449.72;5057347;28;20248;-80
2024/03/12 06:59:35;;;;;;;10.00;6.57;;;;;;;7.47;93.41;100449.72;5055204;28;20328;-82
2024/03/12 07:02:01;;;;;;;7.97;6.40;;;;;;;7.50;93.76;100448.69;5055120;28;20228;-81
2024/03/12 07:04:34;;;;;;;8.07;6.63;;;;;;;7.54;94.55;100448.44;5050383;28;20307;-80
2024/03/12 07:07:03;;;;;;;8.97;6.97;;;;;;;7.54;94.90;100451.09;5050714;28;20206;-81
2024/03/12 07:09:31;;;;;;;9.70;7.90;;;;;;;7.55;94.65;100455.44;5050961;28;20203;-80
2024/03/12 07:11:58;;;;;;;9.30;7.30;;;;;;;7.55;95.00;100458.09;5052390;28;20206;-79
2024/03/12 07:14:27;;;;;;;10.20;8.17;;;;;;;7.58;94.83;100463.22;5053535;28;20297;-79
2024/03/12 07:16:56;;;;;;;9.03;6.73;;;;;;;7.60;95.07;100463.16;5050328;28;20209;-81
2024/03/12 07:19:23;;;;;;;8.17;6.47;;;;;;;7.66;95.20;100454.88;5052583;28;20566;-81
2024/03/12 07:21:50;;;;;;;10.93;7.80;;;;;;;7.68;95.16;100460.09;5050462;28;20228;-80
2024/03/12 07:24:19;;;;;;;8.47;6.53;;;;;;;7.68;94.89;100462.75;5049125;28;20622;-81
2024/03/12 07:26:47;;;;;;;9.30;6.90;;;;;;;7.74;94.44;100467.69;5050404;28;20205;-81
2024/03/12 07:29:14;;;;;;;8.67;7.00;;;;;;;7.73;94.97;100464.19;5046526;28;20206;-79
2024/03/12 07:31:41;;;;;;;9.30;7.10;;;;;;;7.75;94.56;100472.06;5047063;28;20293;-81
2024/03/12 07:34:09;;;;;;;10.43;8.10;;;;;;;7.80;95.29;100480.63;5049772;28;20209;-80
2024/03/12 07:36:36;;;;;;;10.10;7.07;;;;;;;7.79;95.54;100471.81;5050237;28;20205;-80
2024/03/12 07:39:09;;;;;;;9.17;8.10;;;;;;;7.81;95.39;100479.69;5048918;28;21017;-79
2024/03/12 07:41:36;;;;;;;10.37;7.80;;;;;;;7.88;94.91;100483.75;5049856;28;20226;-81
2024/03/12 07:44:02;;;;;;;9.23;7.13;;;;;;;7.91;94.48;100480.88;5051439;28;20212;-80
2024/03/12 07:46:29;;;;;;;10.60;7.80;;;;;;;7.93;95.81;100481.66;5048724;28;20292;-82
2024/03/12 07:48:56;;;;;;;10.47;7.50;;;;;;;7.97;94.84;100485.88;5052131;28;20226;-80
2024/03/12 07:51:26;;;;;;;10.70;8.27;;;;;;;7.99;94.75;100479.53;5049757;28;20574;-79
2024/03/12 07:53:54;;;;;;;9.30;7.70;;;;;;;8.05;94.08;100482.81;5055960;28;20220;-81
2024/03/12 07:56:23;;;;;;;9.23;7.30;;;;;;;8.05;93.54;100482.81;5048853;28;20206;-80
2024/03/12 07:58:51;;;;;;;12.03;6.83;;;;;;;8.07;93.92;100483.53;5048186;28;20760;-80
2024/03/12 08:01:18;;;;;;;10.60;7.63;;;;;;;8.09;92.90;100487.81;5050647;28;20219;-80
2024/03/12 08:03:44;;;;;;;9.30;7.30;;;;;;;8.08;93.91;100499.38;5049850;28;20275;-79
2024/03/12 08:06:11;;;;;;;10.43;7.53;;;;;;;8.09;93.21;100493.13;5046898;28;20650;-80
2024/03/12 08:08:41;;;;;;;8.57;7.00;;;;;;;8.10;93.91;100492.19;5055149;28;20312;-80
2024/03/12 08:11:08;;;;;;;10.10;8.47;;;;;;;8.14;94.11;100496.41;5051720;28;20284;-80
2024/03/12 08:13:35;;;;;;;9.07;7.50;;;;;;;8.19;93.52;100497.00;5050529;28;20211;-81
2024/03/12 08:16:02;;;;;;;12.23;8.50;;;;;;;8.23;93.41;100503.84;5049858;28;20312;-80
2024/03/12 08:18:29;;;;;;;11.13;7.10;;;;;;;8.26;93.23;100505.44;5054230;28;20252;-81
2024/03/12 08:20:56;;;;;;;13.87;8.57;;;;;;;8.31;93.69;100504.25;5054943;28;20228;-80
2024/03/12 08:23:23;;;;;;;14.07;8.37;;;;;;;8.35;93.54;100505.84;5052436;28;20283;-80
2024/03/12 08:25:51;;;;;;;11.27;8.57;;;;;;;8.39;93.49;100505.69;5052073;28;20307;-80
2024/03/12 08:28:20;;;;;;;11.50;9.00;;;;;;;8.38;93.55;100506.63;5048836;28;20245;-80
2024/03/12 08:30:47;;;;;;;13.27;9.73;;;;;;;8.41;93.42;100515.25;5049876;28;20194;-81
2024/03/12 08:33:17;;;;;;;14.10;10.37;;;;;;;8.46;93.43;100518.50;5049393;28;20209;-82
2024/03/12 08:35:44;;;;;;;13.50;10.00;;;;;;;8.48;93.48;100521.06;5052082;28;20209;-80
2024/03/12 08:38:10;;;;;;;14.07;9.63;;;;;;;8.50;94.82;100521.84;5053410;28;20308;-79
2024/03/12 08:40:37;;;;;;;15.07;10.90;;;;;;;8.64;94.00;100529.88;5051560;28;20236;-80
2024/03/12 08:43:06;;;;;;;15.80;11.27;;;;;;;8.66;94.46;100528.84;5050793;28;20241;-82
2024/03/12 08:45:32;;;;;;;15.20;10.80;;;;;;;8.68;94.64;100526.94;5049958;28;20289;-80
2024/03/12 08:48:00;;;;;;;16.30;11.50;;;;;;;8.80;95.23;100521.88;5052688;28;20264;-79
2024/03/12 08:50:27;;;;;;;19.37;11.90;;;;;;;8.87;95.00;100534.72;5050444;28;20198;-82
2024/03/12 08:52:53;;;;;;;18.10;12.23;;;;;;;8.91;94.77;100530.09;5050270;28;20777;-82
2024/03/12 08:55:20;;;;;;;20.30;12.77;;;;;;;8.95;94.47;100535.13;5049413;28;20316;-81
2024/03/12 08:57:47;;;;;;;20.10;13.90;;;;;;;9.07;94.11;100541.53;5051928;28;20928;-82
2024/03/12 09:00:15;;;;;;;21.40;13.57;;;;;;;9.14;94.04;100539.34;5055514;28;20216;-78
2024/03/12 09:02:42;;;;;;;22.50;13.60;;;;;;;9.18;93.53;100546.19;5048539;28;20585;-79
2024/03/12 09:05:09;;;;;;;22.50;13.43;;;;;;;9.25;94.09;100543.09;5057291;28;20237;-81
2024/03/12 09:07:36;;;;;;;25.67;15.83;;;;;;;9.36;93.67;100545.09;5055034;28;20440;-81
2024/03/12 09:10:05;;;;;;;26.73;17.13;;;;;;;9.48;93.76;100544.38;5048903;28;20654;-79
2024/03/12 09:12:32;;;;;;;27.57;16.33;;;;;;;9.58;92.35;100553.50;5049120;28;20252;-79
2024/03/12 09:14:59;;;;;;;25.83;15.93;;;;;;;9.73;92.29;100551.69;5048740;28;20205;-80
2024/03/12 09:17:28;;;;;;;28.00;16.10;;;;;;;9.84;90.81;100548.41;5048253;28;20676;-80
2024/03/12 09:19:54;;;;;;;30.80;17.37;;;;;;;9.96;89.97;100551.13;5050230;28;20222;-80
2024/03/12 09:22:22;;;;;;;31.07;17.43;;;;;;;10.00;88.81;100552.66;5051357;28;20771;-80
2024/03/12 09:24:49;;;;;;;30.13;17.73;;;;;;;10.09;89.16;100552.06;5048769;28;20215;-80
2024/03/12 09:27:16;;;;;;;27.80;17.00;;;;;;;10.23;89.02;100564.53;5055346;28;20226;-81
2024/03/12 09:29:43;;;;;;;28.30;16.97;;;;;;;10.37;88.77;100567.19;5056623;28;20233;-79
2024/03/12 09:32:09;;;;;;;28.70;15.57;;;;;;;10.50;87.40;100555.75;5055370;28;20682;-80
2024/03/12 09:34:39;;;;;;;31.77;16.77;;;;;;;10.58;87.16;100562.28;5044961;28;20230;-82
2024/03/12 09:37:06;;;;;;;26.47;15.73;;;;;;;10.69;85.04;100566.94;5053444;28;20714;-80
2024/03/12 09:39:34;;;;;;;27.90;15.27;;;;;;;10.72;84.24;100566.72;5051779;28;20225;-80
2024/03/12 09:42:01;;;;;;;22.73;14.33;;;;;;;10.72;84.50;100564.06;5053937;28;20223;-80
2024/03/12 09:44:28;;;;;;;26.77;15.33;;;;;;;10.74;84.48;100564.81;5051653;28;20242;-80
2024/03/12 09:46:56;;;;;;;24.70;14.63;;;;;;;10.75;84.01;100566.50;5044601;28;20738;-79
2024/03/12 09:49:23;;;;;;;25.47;14.47;;;;;;;10.74;83.15;100580.81;5052149;28;20810;-81
2024/03/12 09:51:51;;;;;;;23.47;13.87;;;;;;;10.72;83.24;100577.38;5052060;28;20237;-80
2024/03/12 09:54:18;;;;;;;21.17;13.63;;;;;;;10.70;83.69;100571.31;5053310;28;20220;-79
2024/03/12 09:56:46;;;;;;;24.80;14.00;;;;;;;10.70;83.55;100576.63;5050550;28;20237;-79
2024/03/12 09:59:13;;;;;;;25.27;14.40;;;;;;;10.66;83.31;100578.63;5049853;28;20289;-79
2024/03/12 10:01:40;;;;;;;22.80;13.53;;;;;;;10.65;84.17;100584.06;5053358;28;20309;-80
2024/03/12 10:04:07;;;;;;;22.80;13.23;;;;;;;10.62;83.75;100581.59;5055145;28;20256;-79
2024/03/12 10:06:35;;;;;;;23.33;13.30;;;;;;;10.64;84.46;100587.66;5050620;28;20201;-81
2024/03/12 10:09:05;;;;;;;22.70;13.13;;;;;;;10.63;84.16;100583.28;5053891;28;20252;-80
2024/03/12 10:11:32;;;;;;;24.30;13.70;;;;;;;10.58;84.51;100588.06;5055296;28;20193;-79
2024/03/12 10:14:00;;;;;;;21.63;12.63;;;;;;;10.57;85.28;100594.38;5057267;28;20213;-78
2024/03/12 10:16:28;;;;;;;22.00;12.57;;;;;;;10.54;85.52;100589.22;5053836;28;20289;-80
2024/03/12 10:19:11;;;;;;;23.53;13.80;;;;;;;10.51;86.30;100589.41;5053079;28;20238;-78
2024/03/12 10:21:40;;;;;;;22.70;13.40;;;;;;;10.52;85.96;100592.00;5055759;28;20238;-79
2024/03/12 10:24:13;;;;;;;23.70;13.60;;;;;;;10.49;85.63;100597.50;5055413;28;20209;-78
2024/03/12 10:26:40;;;;;;;24.93;12.90;;;;;;;10.46;85.92;100603.00;5057338;28;20205;-78
2024/03/12 10:29:11;;;;;;;23.60;13.67;;;;;;;10.43;86.07;100603.22;5045427;28;20253;-79
2024/03/12 10:31:43;;;;;;;21.63;13.53;;;;;;;10.39;86.50;100607.88;5057675;28;20681;-78
2024/03/12 10:34:13;;;;;;;23.30;13.83;;;;;;;10.33;86.41;100608.28;5058957;28;20582;-78
2024/03/12 10:36:42;;;;;;;22.37;13.03;;;;;;;10.32;86.91;100619.00;5047957;28;20210;-78
2024/03/12 10:39:13;;;;;;;22.80;13.90;;;;;;;10.29;86.97;100620.06;5057638;28;20218;-79
2024/03/12 10:41:42;;;;;;;27.40;15.73;;;;;;;10.25;86.72;100615.88;5051156;28;20214;-79
2024/03/12 10:44:10;;;;;;;28.30;14.67;;;;;;;10.22;86.74;100621.38;5054670;28;20219;-79
2024/03/12 10:46:40;;;;;;;26.40;14.60;;;;;;;10.19;87.24;100618.94;5048334;28;20206;-80
2024/03/12 10:49:10;;;;;;;26.33;14.23;;;;;;;10.17;87.88;100622.59;5064752;28;20225;-79
2024/03/12 10:51:40;;;;;;;26.03;13.97;;;;;;;10.14;88.71;100628.09;5047759;28;20212;-79
2024/03/12 10:54:11;;;;;;;22.57;13.93;;;;;;;10.19;89.73;100629.56;5049329;28;20656;-77
2024/03/12 10:56:39;;;;;;;25.53;14.67;;;;;;;10.21;89.96;100624.97;5049830;28;20211;-80
2024/03/12 10:59:08;;;;;;;24.37;13.90;;;;;;;10.22;90.01;100626.69;5052177;28;20727;-81
2024/03/12 11:01:36;;;;;;;24.13;13.63;;;;;;;10.20;88.94;100631.28;5043928;28;20232;-79
2024/03/12 11:04:05;;;;;;;26.40;14.60;;;;;;;10.19;89.40;100634.03;5048879;28;20219;-80
2024/03/12 11:06:35;;;;;;;24.07;12.93;;;;;;;10.17;89.46;100634.09;5049980;28;20201;-79
2024/03/12 11:09:02;;;;;;;24.87;14.63;;;;;;;10.18;90.32;100641.13;5053075;28;20232;-79
2024/03/12 11:11:29;;;;;;;27.17;14.57;;;;;;;10.17;90.99;100638.56;5052816;28;20244;-78
2024/03/12 11:14:01;;;;;;;23.67;14.73;;;;;;;10.18;91.65;100638.47;5050190;28;20261;-78
2024/03/12 11:16:31;;;;;;;29.50;15.67;;;;;;;10.18;91.18;100638.47;5054266;28;20227;-81
2024/03/12 11:18:58;;;;;;;25.07;15.37;;;;;;;10.19;91.67;100648.22;5049313;28;20252;-79
2024/03/12 11:21:32;;;;;;;24.67;14.00;;;;;;;10.20;91.84;100636.63;5049150;28;20562;-80
2024/03/12 11:23:59;;;;;;;23.50;13.77;;;;;;;10.24;91.75;100637.25;5048402;28;20198;-81
2024/03/12 11:26:29;;;;;;;21.17;13.80;;;;;;;10.30;91.03;100632.41;5050199;28;20758;-81
2024/03/12 11:28:57;;;;;;;23.90;14.77;;;;;;;10.33;90.54;100629.56;5051548;28;20605;-79
2024/03/12 11:31:24;;;;;;;24.30;14.13;;;;;;;10.36;90.50;100631.19;5051967;28;20207;-81
2024/03/12 11:33:52;;;;;;;21.77;13.10;;;;;;;10.40;89.84;100633.53;5045549;28;20699;-79
2024/03/12 11:36:28;;;;;;;21.67;13.33;;;;;;;10.43;89.99;100638.66;5054059;28;20238;-80
2024/03/12 11:38:58;;;;;;;20.57;12.63;;;;;;;10.46;88.73;100639.44;5048811;28;20233;-79